createdAt,value
2022-11-28T00:01:00.927Z,0
2022-11-28T00:02:17.202Z,0
2022-11-28T00:03:32.416Z,0
2022-11-28T00:04:48.602Z,0
2022-11-28T00:06:04.697Z,0
2022-11-28T00:07:20.871Z,0
2022-11-28T00:08:37.172Z,0
2022-11-28T00:09:53.244Z,0
2022-11-28T00:11:09.444Z,0
2022-11-28T00:12:25.733Z,0
2022-11-28T00:13:41.820Z,0
2022-11-28T00:14:58.103Z,0
2022-11-28T00:16:14.289Z,0
2022-11-28T00:17:30.474Z,0
2022-11-28T00:18:46.655Z,0
2022-11-28T00:20:01.768Z,0
2022-11-28T00:21:17.951Z,0
2022-11-28T00:22:34.242Z,0
2022-11-28T00:23:50.335Z,0
2022-11-28T00:25:06.624Z,0
2022-11-28T00:26:22.798Z,0
2022-11-28T00:27:38.983Z,0
2022-11-28T00:28:55.075Z,0
2022-11-28T00:30:11.363Z,0
2022-11-28T00:31:27.545Z,0
2022-11-28T00:32:43.634Z,0
2022-11-28T00:33:59.817Z,0
2022-11-28T00:35:16.122Z,0
2022-11-28T00:36:31.221Z,0
2022-11-28T00:37:47.497Z,0
2022-11-28T00:39:03.690Z,0
2022-11-28T00:40:19.881Z,0
2022-11-28T00:41:36.069Z,0
2022-11-28T00:42:52.266Z,0
2022-11-28T00:44:08.333Z,0
2022-11-28T00:45:24.528Z,0
2022-11-28T00:46:40.823Z,0
2022-11-28T00:47:57.014Z,0
2022-11-28T00:49:13.199Z,0
2022-11-28T00:50:29.372Z,0
2022-11-28T00:51:45.460Z,0
2022-11-28T00:53:00.671Z,0
2022-11-28T00:54:16.852Z,0
2022-11-28T00:55:33.149Z,0
2022-11-28T00:56:49.235Z,0
2022-11-28T00:59:21.600Z,0
2022-11-28T01:00:37.890Z,0
2022-11-28T01:01:54.077Z,0
2022-11-28T01:03:10.266Z,0
2022-11-28T01:04:26.343Z,0
2022-11-28T01:05:42.654Z,0
2022-11-28T01:06:58.722Z,0
2022-11-28T01:08:15.018Z,0
2022-11-28T01:09:30.220Z,0
2022-11-28T01:10:46.300Z,0
2022-11-28T01:12:02.604Z,0
2022-11-28T01:13:18.793Z,0
2022-11-28T01:14:34.873Z,0
2022-11-28T01:15:51.168Z,0
2022-11-28T01:17:06.363Z,0
2022-11-28T01:18:22.570Z,0
2022-11-28T01:19:38.630Z,0
2022-11-28T01:20:54.939Z,0
2022-11-28T01:22:11.015Z,0
2022-11-28T01:23:27.205Z,0
2022-11-28T01:24:43.491Z,0
2022-11-28T01:25:59.677Z,0
2022-11-28T01:27:15.890Z,0
2022-11-28T01:28:32.065Z,0
2022-11-28T01:29:48.130Z,0
2022-11-28T01:31:04.431Z,0
2022-11-28T01:32:20.499Z,0
2022-11-28T01:33:35.824Z,0
2022-11-28T01:34:52.022Z,0
2022-11-28T01:36:08.080Z,0
2022-11-28T01:37:24.271Z,0
2022-11-28T01:38:40.571Z,0
2022-11-28T01:39:56.640Z,0
2022-11-28T01:41:12.948Z,0
2022-11-28T01:42:29.147Z,0
2022-11-28T01:43:45.326Z,0
2022-11-28T01:45:01.402Z,0
2022-11-28T01:46:17.706Z,0
2022-11-28T01:47:33.763Z,0
2022-11-28T01:48:49.953Z,0
2022-11-28T01:50:05.168Z,0
2022-11-28T01:51:21.472Z,0
2022-11-28T01:52:37.527Z,0
2022-11-28T01:53:53.838Z,0
2022-11-28T01:55:10.026Z,0
2022-11-28T01:56:26.109Z,0
2022-11-28T01:57:42.415Z,0
2022-11-28T01:58:58.583Z,0
2022-11-28T02:00:14.667Z,0
2022-11-28T02:01:30.855Z,0
2022-11-28T02:02:47.146Z,0
2022-11-28T02:04:03.216Z,0
2022-11-28T02:05:19.411Z,0
2022-11-28T02:06:34.734Z,0
2022-11-28T02:07:50.793Z,0
2022-11-28T02:09:07.104Z,0
2022-11-28T02:10:23.287Z,0
2022-11-28T02:11:39.491Z,0
2022-11-28T02:12:55.675Z,0
2022-11-28T02:14:11.854Z,0
2022-11-28T02:15:27.931Z,0
2022-11-28T02:16:44.225Z,0
2022-11-28T02:18:00.300Z,0
2022-11-28T02:19:16.617Z,0
2022-11-28T02:20:32.674Z,0
2022-11-28T02:21:48.975Z,0
2022-11-28T02:23:04.062Z,0
2022-11-28T02:24:20.366Z,0
2022-11-28T02:25:36.564Z,0
2022-11-28T02:26:52.752Z,0
2022-11-28T02:28:08.943Z,0
2022-11-28T02:29:25.129Z,0
2022-11-28T02:30:41.193Z,0
2022-11-28T02:31:57.496Z,0
2022-11-28T02:33:13.568Z,0
2022-11-28T02:34:29.876Z,0
2022-11-28T02:35:46.067Z,0
2022-11-28T02:37:02.245Z,0
2022-11-28T02:38:18.312Z,0
2022-11-28T02:39:33.504Z,0
2022-11-28T02:40:49.820Z,0
2022-11-28T02:42:06.023Z,0
2022-11-28T02:43:22.204Z,0
2022-11-28T02:44:38.384Z,0
2022-11-28T02:45:54.449Z,0
2022-11-28T02:47:10.771Z,0
2022-11-28T02:48:26.953Z,0
2022-11-28T02:49:43.133Z,0
2022-11-28T02:50:59.326Z,0
2022-11-28T02:52:15.375Z,0
2022-11-28T02:53:31.572Z,0
2022-11-28T02:54:47.885Z,0
2022-11-28T02:56:02.963Z,0
2022-11-28T02:57:19.287Z,0
2022-11-28T02:58:35.469Z,0
2022-11-28T02:59:51.657Z,0
2022-11-28T03:01:07.707Z,0
2022-11-28T03:02:24.036Z,0
2022-11-28T03:03:40.079Z,0
2022-11-28T03:04:56.265Z,0
2022-11-28T03:06:12.583Z,0
2022-11-28T03:07:28.656Z,0
2022-11-28T03:08:44.828Z,0
2022-11-28T03:10:01.151Z,0
2022-11-28T03:11:17.201Z,0
2022-11-28T03:12:32.555Z,0
2022-11-28T03:13:48.741Z,0
2022-11-28T03:15:04.916Z,0
2022-11-28T03:16:20.976Z,0
2022-11-28T03:17:37.163Z,0
2022-11-28T03:18:53.480Z,0
2022-11-28T03:20:09.664Z,0
2022-11-28T03:21:25.857Z,0
2022-11-28T03:22:42.055Z,0
2022-11-28T03:23:58.099Z,0
2022-11-28T03:25:14.429Z,0
2022-11-28T03:26:30.478Z,0
2022-11-28T03:27:46.790Z,0
2022-11-28T03:29:02.002Z,0
2022-11-28T03:30:18.061Z,0
2022-11-28T03:31:34.234Z,0
2022-11-28T03:32:50.572Z,0
2022-11-28T03:34:06.762Z,0
2022-11-28T03:35:22.950Z,0
2022-11-28T03:36:39.134Z,0
2022-11-28T03:37:55.319Z,0
2022-11-28T03:39:11.370Z,0
2022-11-28T03:40:27.702Z,0
2022-11-28T03:41:43.889Z,0
2022-11-28T03:43:00.087Z,0
2022-11-28T03:44:16.259Z,0
2022-11-28T03:45:31.472Z,0
2022-11-28T03:46:47.529Z,0
2022-11-28T03:48:03.860Z,0
2022-11-28T03:49:20.041Z,0
2022-11-28T03:50:36.225Z,0
2022-11-28T03:51:52.284Z,0
2022-11-28T03:53:08.611Z,0
2022-11-28T03:54:24.644Z,0
2022-11-28T03:55:40.846Z,0
2022-11-28T03:56:57.167Z,0
2022-11-28T03:58:13.365Z,0
2022-11-28T03:59:29.551Z,0
2022-11-28T04:00:45.744Z,0
2022-11-28T04:02:00.797Z,0
2022-11-28T04:03:17.135Z,0
2022-11-28T04:04:33.325Z,0
2022-11-28T04:05:49.517Z,0
2022-11-28T04:07:05.710Z,0
2022-11-28T04:08:21.756Z,0
2022-11-28T04:09:37.937Z,0
2022-11-28T04:10:54.267Z,0
2022-11-28T04:12:10.304Z,0
2022-11-28T04:13:26.652Z,0
2022-11-28T04:14:42.837Z,0
2022-11-28T04:15:59.034Z,0
2022-11-28T04:17:15.070Z,0
2022-11-28T04:18:30.420Z,0
2022-11-28T04:19:46.467Z,0
2022-11-28T04:21:02.657Z,0
2022-11-28T04:22:18.994Z,0
2022-11-28T04:23:35.032Z,0
2022-11-28T04:24:51.214Z,0
2022-11-28T04:26:07.550Z,0
2022-11-28T04:27:23.752Z,0
2022-11-28T04:28:39.934Z,0
2022-11-28T04:29:56.132Z,0
2022-11-28T04:31:12.316Z,0
2022-11-28T04:32:28.359Z,0
2022-11-28T04:33:44.546Z,0
2022-11-28T04:34:59.898Z,0
2022-11-28T04:36:16.087Z,0
2022-11-28T04:37:32.272Z,0
2022-11-28T04:38:48.458Z,0
2022-11-28T04:40:04.508Z,0
2022-11-28T04:41:20.697Z,0
2022-11-28T04:42:36.879Z,0
2022-11-28T04:43:53.224Z,0
2022-11-28T04:45:09.253Z,0
2022-11-28T04:46:25.453Z,0
2022-11-28T04:47:41.631Z,0
2022-11-28T04:48:57.976Z,0
2022-11-28T04:50:14.179Z,0
2022-11-28T04:51:29.365Z,0
2022-11-28T04:52:45.403Z,0
2022-11-28T04:54:01.759Z,0
2022-11-28T04:55:17.785Z,0
2022-11-28T04:56:34.136Z,0
2022-11-28T04:57:50.163Z,0
2022-11-28T04:59:06.344Z,0
2022-11-28T05:00:22.542Z,0
2022-11-28T05:01:38.888Z,0
2022-11-28T05:02:54.921Z,0
2022-11-28T05:04:11.269Z,0
2022-11-28T05:05:27.456Z,0
2022-11-28T05:06:43.645Z,0
2022-11-28T05:07:58.697Z,0
2022-11-28T05:09:15.043Z,0
2022-11-28T05:10:31.057Z,0
2022-11-28T05:11:47.416Z,0
2022-11-28T05:13:03.605Z,0
2022-11-28T05:14:19.791Z,0
2022-11-28T05:15:35.815Z,0
2022-11-28T05:16:52.183Z,0
2022-11-28T05:18:08.205Z,0
2022-11-28T05:19:24.383Z,0
2022-11-28T05:20:40.578Z,0
2022-11-28T05:21:56.928Z,0
2022-11-28T05:23:12.955Z,0
2022-11-28T05:24:28.158Z,0
2022-11-28T05:25:44.354Z,0
2022-11-28T05:27:00.698Z,0
2022-11-28T05:28:16.888Z,0
2022-11-28T05:29:33.089Z,0
2022-11-28T05:30:49.274Z,0
2022-11-28T05:32:04.490Z,0
2022-11-28T05:33:20.516Z,0
2022-11-28T05:34:36.868Z,0
2022-11-28T05:35:53.052Z,0
2022-11-28T05:37:09.066Z,0
2022-11-28T05:38:25.423Z,0
2022-11-28T05:39:41.609Z,0
2022-11-28T05:40:57.649Z,0
2022-11-28T05:42:13.997Z,0
2022-11-28T05:43:30.022Z,0
2022-11-28T05:44:46.377Z,0
2022-11-28T05:46:02.391Z,0
2022-11-28T05:47:18.750Z,0
2022-11-28T05:48:33.786Z,0
2022-11-28T05:49:49.988Z,0
2022-11-28T05:51:06.163Z,0
2022-11-28T05:52:22.362Z,0
2022-11-28T05:53:38.722Z,0
2022-11-28T05:54:54.730Z,0
2022-11-28T05:56:10.922Z,0
2022-11-28T05:57:27.112Z,0
2022-11-28T05:58:43.313Z,0
2022-11-28T05:59:59.665Z,0
2022-11-28T06:01:15.690Z,0
2022-11-28T06:02:31.880Z,0
2022-11-28T06:03:48.066Z,0
2022-11-28T06:05:03.444Z,0
2022-11-28T06:06:19.464Z,0
2022-11-28T06:07:35.808Z,0
2022-11-28T06:08:52.006Z,0
2022-11-28T06:10:08.200Z,0
2022-11-28T06:11:24.214Z,0
2022-11-28T06:12:40.572Z,0
2022-11-28T06:13:56.591Z,0
2022-11-28T06:15:12.784Z,0
2022-11-28T06:16:28.969Z,0
2022-11-28T06:17:45.341Z,0
2022-11-28T06:19:01.344Z,0
2022-11-28T06:20:17.710Z,0
2022-11-28T06:21:32.924Z,4
2022-11-28T06:22:48.927Z,4
2022-11-28T06:24:05.301Z,0
2022-11-28T06:25:21.490Z,4
2022-11-28T06:26:37.504Z,4
2022-11-28T06:27:53.694Z,8
2022-11-28T06:29:09.881Z,4
2022-11-28T06:30:26.243Z,8
2022-11-28T06:31:42.432Z,8
2022-11-28T06:32:58.624Z,8
2022-11-28T06:34:14.644Z,12
2022-11-28T06:35:30.833Z,12
2022-11-28T06:36:47.196Z,16
2022-11-28T06:38:02.394Z,20
2022-11-28T06:39:18.582Z,20
2022-11-28T06:40:34.592Z,24
2022-11-28T06:41:50.781Z,24
2022-11-28T06:43:07.146Z,24
2022-11-28T06:44:23.345Z,32
2022-11-28T06:45:39.534Z,32
2022-11-28T06:46:55.543Z,36
2022-11-28T06:48:11.917Z,40
2022-11-28T06:49:27.924Z,44
2022-11-28T06:50:44.291Z,48
2022-11-28T06:52:00.289Z,52
2022-11-28T06:53:16.484Z,56
2022-11-28T06:54:31.867Z,60
2022-11-28T06:55:48.058Z,64
2022-11-28T06:57:04.062Z,68
2022-11-28T06:58:20.442Z,76
2022-11-28T06:59:36.444Z,84
2022-11-28T07:00:52.637Z,84
2022-11-28T07:02:08.837Z,92
2022-11-28T07:03:25.204Z,96
2022-11-28T07:04:41.210Z,104
2022-11-28T07:05:57.579Z,112
2022-11-28T07:07:13.762Z,124
2022-11-28T07:08:29.956Z,128
2022-11-28T07:09:45.968Z,140
2022-11-28T07:11:01.170Z,152
2022-11-28T07:12:17.356Z,156
2022-11-28T07:13:33.734Z,160
2022-11-28T07:14:49.920Z,168
2022-11-28T07:16:06.120Z,180
2022-11-28T07:17:22.292Z,192
2022-11-28T07:18:38.310Z,208
2022-11-28T07:19:54.501Z,228
2022-11-28T07:21:10.861Z,244
2022-11-28T07:22:27.060Z,264
2022-11-28T07:23:43.247Z,280
2022-11-28T07:24:59.436Z,292
2022-11-28T07:26:15.618Z,300
2022-11-28T07:27:30.647Z,316
2022-11-28T07:28:47.013Z,332
2022-11-28T07:30:03.025Z,356
2022-11-28T07:31:19.210Z,364
2022-11-28T07:32:35.391Z,380
2022-11-28T07:33:51.787Z,400
2022-11-28T07:35:07.788Z,400
2022-11-28T07:36:24.161Z,404
2022-11-28T07:37:40.353Z,408
2022-11-28T07:38:56.538Z,416
2022-11-28T07:40:12.535Z,432
2022-11-28T07:41:28.915Z,436
2022-11-28T07:42:44.909Z,448
2022-11-28T07:44:00.115Z,444
2022-11-28T07:45:16.306Z,448
2022-11-28T07:46:32.685Z,460
2022-11-28T07:47:48.685Z,460
2022-11-28T07:49:05.067Z,480
2022-11-28T07:50:21.062Z,480
2022-11-28T07:51:37.450Z,496
2022-11-28T07:52:53.642Z,496
2022-11-28T07:54:09.824Z,536
2022-11-28T07:55:26.025Z,544
2022-11-28T07:56:42.001Z,580
2022-11-28T07:57:58.196Z,572
2022-11-28T07:59:14.578Z,596
2022-11-28T08:00:29.799Z,616
2022-11-28T08:01:45.774Z,672
2022-11-28T08:03:01.971Z,700
2022-11-28T08:04:18.355Z,804
2022-11-28T08:05:34.344Z,800
2022-11-28T08:06:50.741Z,896
2022-11-28T08:08:06.925Z,904
2022-11-28T08:09:22.914Z,940
2022-11-28T08:10:39.097Z,848
2022-11-28T08:11:55.483Z,984
2022-11-28T08:13:11.475Z,984
2022-11-28T08:14:27.860Z,1000
2022-11-28T08:15:43.862Z,992
2022-11-28T08:16:59.265Z,1012
2022-11-28T08:18:15.259Z,1020
2022-11-28T08:19:31.643Z,1040
2022-11-28T08:20:47.632Z,1088
2022-11-28T08:22:03.813Z,1096
2022-11-28T08:23:20.013Z,1148
2022-11-28T08:24:36.403Z,1176
2022-11-28T08:25:52.595Z,1192
2022-11-28T08:27:08.786Z,1200
2022-11-28T08:28:24.764Z,1200
2022-11-28T08:29:41.148Z,1212
2022-11-28T08:30:57.342Z,1212
2022-11-28T08:32:13.546Z,1224
2022-11-28T08:33:28.748Z,1212
2022-11-28T08:34:44.940Z,1204
2022-11-28T08:36:00.907Z,1236
2022-11-28T08:37:17.305Z,1252
2022-11-28T08:38:33.505Z,1292
2022-11-28T08:39:49.698Z,1316
2022-11-28T08:41:05.873Z,1332
2022-11-28T08:42:22.062Z,1344
2022-11-28T08:43:38.048Z,1376
2022-11-28T08:44:54.435Z,1384
2022-11-28T08:46:10.435Z,1408
2022-11-28T08:47:26.823Z,1432
2022-11-28T08:48:43.003Z,1432
2022-11-28T08:49:58.224Z,1420
2022-11-28T08:51:14.204Z,1420
2022-11-28T08:52:30.604Z,1444
2022-11-28T08:53:46.585Z,1492
2022-11-28T08:55:02.986Z,1568
2022-11-28T08:56:19.158Z,1624
2022-11-28T08:57:35.141Z,1696
2022-11-28T08:58:51.341Z,1736
2022-11-28T09:00:07.528Z,1732
2022-11-28T09:01:23.711Z,1724
2022-11-28T09:02:40.104Z,1748
2022-11-28T09:03:56.296Z,1716
2022-11-28T09:05:12.482Z,1752
2022-11-28T09:06:27.485Z,1776
2022-11-28T09:07:43.664Z,1812
2022-11-28T09:08:59.864Z,1828
2022-11-28T09:10:16.268Z,1836
2022-11-28T09:11:32.443Z,1852
2022-11-28T09:12:48.421Z,1860
2022-11-28T09:14:04.618Z,1832
2022-11-28T09:15:21.011Z,1800
2022-11-28T09:16:36.994Z,1736
2022-11-28T09:17:53.408Z,1656
2022-11-28T09:19:09.590Z,1596
2022-11-28T09:20:25.772Z,1540
2022-11-28T09:21:41.755Z,1544
2022-11-28T09:22:57.177Z,1588
2022-11-28T09:24:13.148Z,1588
2022-11-28T09:25:29.328Z,1640
2022-11-28T09:26:45.732Z,1644
2022-11-28T09:28:01.933Z,1676
2022-11-28T09:29:17.911Z,1672
2022-11-28T09:30:34.307Z,1696
2022-11-28T09:31:50.271Z,1760
2022-11-28T09:33:06.682Z,1736
2022-11-28T09:34:22.666Z,1796
2022-11-28T09:35:38.842Z,1752
2022-11-28T09:36:55.026Z,1628
2022-11-28T09:38:11.216Z,1848
2022-11-28T09:39:26.653Z,1908
2022-11-28T09:40:42.845Z,1888
2022-11-28T09:41:59.037Z,1800
2022-11-28T09:43:14.999Z,1856
2022-11-28T09:44:31.193Z,1932
2022-11-28T09:45:47.365Z,1752
2022-11-28T09:47:02.806Z,1796
2022-11-28T09:48:19.004Z,1828
2022-11-28T09:49:35.180Z,2020
2022-11-28T09:50:51.145Z,1880
2022-11-28T09:52:07.345Z,1960
2022-11-28T09:53:23.761Z,2056
2022-11-28T09:54:39.939Z,2020
2022-11-28T09:55:56.125Z,1956
2022-11-28T09:57:12.323Z,2012
2022-11-28T09:58:28.287Z,1984
2022-11-28T09:59:44.471Z,1984
2022-11-28T10:01:00.879Z,2168
2022-11-28T10:02:17.073Z,2116
2022-11-28T10:03:32.061Z,2068
2022-11-28T10:04:48.466Z,2116
2022-11-28T10:06:04.652Z,2136
2022-11-28T10:07:20.635Z,2196
2022-11-28T10:08:37.037Z,2204
2022-11-28T10:09:53.003Z,2232
2022-11-28T10:11:09.194Z,2248
2022-11-28T10:12:25.389Z,2240
2022-11-28T10:13:41.788Z,2224
2022-11-28T10:14:57.762Z,2200
2022-11-28T10:16:13.954Z,2152
2022-11-28T10:17:30.129Z,1972
2022-11-28T10:18:46.550Z,2100
2022-11-28T10:20:01.757Z,2072
2022-11-28T10:21:17.946Z,2092
2022-11-28T10:22:33.920Z,2036
2022-11-28T10:23:50.107Z,1992
2022-11-28T10:25:06.299Z,1968
2022-11-28T10:26:22.710Z,1912
2022-11-28T10:27:38.676Z,1916
2022-11-28T10:28:54.852Z,1908
2022-11-28T10:30:11.037Z,1932
2022-11-28T10:31:27.453Z,1968
2022-11-28T10:32:43.427Z,2016
2022-11-28T10:33:59.848Z,2068
2022-11-28T10:35:16.023Z,2120
2022-11-28T10:36:30.999Z,2164
2022-11-28T10:37:47.195Z,2172
2022-11-28T10:39:03.611Z,2148
2022-11-28T10:40:19.795Z,2104
2022-11-28T10:41:35.762Z,2056
2022-11-28T10:42:51.960Z,2008
2022-11-28T10:44:08.145Z,1976
2022-11-28T10:45:24.338Z,1968
2022-11-28T10:46:40.752Z,1944
2022-11-28T10:47:56.933Z,1936
2022-11-28T10:49:12.899Z,1908
2022-11-28T10:50:29.328Z,1868
2022-11-28T10:51:45.507Z,1816
2022-11-28T10:53:00.482Z,1756
2022-11-28T10:54:16.671Z,1696
2022-11-28T10:55:33.100Z,1632
2022-11-28T10:56:49.285Z,1568
2022-11-28T10:58:05.473Z,1504
2022-11-28T10:59:21.425Z,1452
2022-11-28T11:00:37.624Z,1412
2022-11-28T11:01:54.040Z,1376
2022-11-28T11:03:09.982Z,1344
2022-11-28T11:04:26.411Z,1316
2022-11-28T11:05:42.374Z,1304
2022-11-28T11:06:58.564Z,1296
2022-11-28T11:08:14.740Z,1300
2022-11-28T11:09:30.188Z,1312
2022-11-28T11:10:46.142Z,1340
2022-11-28T11:12:02.568Z,1388
2022-11-28T11:13:18.766Z,1444
2022-11-28T11:14:34.711Z,1480
2022-11-28T11:15:50.897Z,1516
2022-11-28T11:17:07.321Z,1548
2022-11-28T11:18:23.504Z,1584
2022-11-28T11:19:39.457Z,1624
2022-11-28T11:20:55.654Z,1648
2022-11-28T11:22:12.088Z,1664
2022-11-28T11:23:28.039Z,1668
2022-11-28T11:24:44.458Z,1672
2022-11-28T11:25:59.417Z,1672
2022-11-28T11:27:15.848Z,1672
2022-11-28T11:28:32.041Z,1676
2022-11-28T11:29:48.224Z,1684
2022-11-28T11:31:04.180Z,1684
2022-11-28T11:32:20.371Z,1688
2022-11-28T11:33:36.554Z,1696
2022-11-28T11:34:52.747Z,1732
2022-11-28T11:36:08.942Z,1772
2022-11-28T11:37:25.371Z,1808
2022-11-28T11:38:41.313Z,1840
2022-11-28T11:39:57.742Z,1868
2022-11-28T11:41:13.943Z,1916
2022-11-28T11:42:29.148Z,2000
2022-11-28T11:43:45.081Z,2116
2022-11-28T11:45:01.266Z,2256
2022-11-28T11:46:17.468Z,2388
2022-11-28T11:47:33.894Z,2504
2022-11-28T11:48:49.851Z,2616
2022-11-28T11:50:06.287Z,2708
2022-11-28T11:51:22.458Z,2772
2022-11-28T11:52:38.662Z,2812
2022-11-28T11:53:54.598Z,2832
2022-11-28T11:55:10.785Z,2828
2022-11-28T11:56:26.966Z,2812
2022-11-28T11:57:43.162Z,2772
2022-11-28T11:58:59.605Z,2712
2022-11-28T12:00:14.808Z,2640
2022-11-28T12:01:30.745Z,2592
2022-11-28T12:02:47.179Z,2572
2022-11-28T12:04:03.375Z,2564
2022-11-28T12:05:19.554Z,2580
2022-11-28T12:06:35.745Z,2584
2022-11-28T12:07:51.934Z,2564
2022-11-28T12:09:07.883Z,2528
2022-11-28T12:10:24.069Z,2496
2022-11-28T12:11:40.511Z,2500
2022-11-28T12:12:56.704Z,2536
2022-11-28T12:14:12.639Z,2588
2022-11-28T12:15:29.077Z,2624
2022-11-28T12:16:44.033Z,2636
2022-11-28T12:18:00.474Z,2632
2022-11-28T12:19:16.665Z,2632
2022-11-28T12:20:32.592Z,2636
2022-11-28T12:21:48.792Z,2612
2022-11-28T12:23:04.976Z,2572
2022-11-28T12:24:21.161Z,2512
2022-11-28T12:25:37.559Z,2416
2022-11-28T12:26:53.745Z,2308
2022-11-28T12:28:09.934Z,2188
2022-11-28T12:29:26.117Z,2084
2022-11-28T12:30:42.313Z,1992
2022-11-28T12:31:58.487Z,1924
2022-11-28T12:33:13.706Z,1880
2022-11-28T12:34:29.899Z,1856
2022-11-28T12:35:46.077Z,1820
2022-11-28T12:37:02.262Z,1780
2022-11-28T12:38:18.466Z,1728
2022-11-28T12:39:34.658Z,1656
2022-11-28T12:40:50.838Z,1576
2022-11-28T12:42:07.020Z,1520
2022-11-28T12:43:23.217Z,1476
2022-11-28T12:44:39.404Z,1456
2022-11-28T12:45:55.596Z,1448
2022-11-28T12:47:11.784Z,1448
2022-11-28T12:48:27.978Z,1456
2022-11-28T12:49:43.187Z,1476
2022-11-28T12:50:59.378Z,1500
2022-11-28T12:52:15.555Z,1528
2022-11-28T12:53:31.745Z,1548
2022-11-28T12:54:47.923Z,1556
2022-11-28T12:56:04.127Z,1548
2022-11-28T12:57:20.311Z,1524
2022-11-28T12:58:36.512Z,1500
2022-11-28T12:59:52.687Z,1500
2022-11-28T13:01:08.864Z,1500
2022-11-28T13:02:25.060Z,1496
2022-11-28T13:03:41.252Z,1496
2022-11-28T13:04:57.432Z,1480
2022-11-28T13:06:12.648Z,1444
2022-11-28T13:07:28.844Z,1404
2022-11-28T13:08:45.025Z,1360
2022-11-28T13:10:01.196Z,1328
2022-11-28T13:11:17.376Z,1304
2022-11-28T13:12:33.581Z,1272
2022-11-28T13:13:49.770Z,1240
2022-11-28T13:15:05.960Z,1212
2022-11-28T13:16:22.149Z,1192
2022-11-28T13:17:38.321Z,1192
2022-11-28T13:18:54.524Z,1212
2022-11-28T13:20:10.719Z,1208
2022-11-28T13:21:26.892Z,1180
2022-11-28T13:22:42.092Z,1148
2022-11-28T13:23:58.279Z,1104
2022-11-28T13:25:14.454Z,1052
2022-11-28T13:26:30.648Z,1036
2022-11-28T13:27:46.857Z,1008
2022-11-28T13:29:03.041Z,1008
2022-11-28T13:30:19.221Z,988
2022-11-28T13:31:35.394Z,952
2022-11-28T13:32:51.577Z,988
2022-11-28T13:34:07.780Z,956
2022-11-28T13:35:23.952Z,896
2022-11-28T13:36:40.172Z,872
2022-11-28T13:37:56.337Z,840
2022-11-28T13:39:11.528Z,780
2022-11-28T13:40:27.727Z,752
2022-11-28T13:41:43.935Z,720
2022-11-28T13:43:00.109Z,696
2022-11-28T13:44:16.309Z,668
2022-11-28T13:45:32.485Z,644
2022-11-28T13:46:48.677Z,592
2022-11-28T13:48:04.850Z,588
2022-11-28T13:49:21.056Z,544
2022-11-28T13:50:37.244Z,524
2022-11-28T13:51:53.403Z,500
2022-11-28T13:53:09.618Z,476
2022-11-28T13:54:25.803Z,448
2022-11-28T13:55:40.979Z,420
2022-11-28T13:56:57.198Z,408
2022-11-28T13:58:13.355Z,392
2022-11-28T13:59:29.559Z,376
2022-11-28T14:00:45.754Z,356
2022-11-28T14:02:00.961Z,340
2022-11-28T14:03:17.127Z,320
2022-11-28T14:04:33.315Z,304
2022-11-28T14:05:49.524Z,288
2022-11-28T14:07:05.716Z,276
2022-11-28T14:08:21.910Z,260
2022-11-28T14:09:38.104Z,252
2022-11-28T14:10:54.266Z,236
2022-11-28T14:12:10.476Z,224
2022-11-28T14:13:26.649Z,220
2022-11-28T14:14:42.850Z,212
2022-11-28T14:15:59.035Z,204
2022-11-28T14:17:15.228Z,200
2022-11-28T14:18:30.396Z,196
2022-11-28T14:19:46.609Z,192
2022-11-28T14:21:02.808Z,188
2022-11-28T14:22:18.993Z,180
2022-11-28T14:23:35.169Z,172
2022-11-28T14:24:51.360Z,168
2022-11-28T14:26:07.514Z,160
2022-11-28T14:27:23.730Z,156
2022-11-28T14:28:39.930Z,148
2022-11-28T14:29:56.078Z,144
2022-11-28T14:31:12.280Z,140
2022-11-28T14:32:28.478Z,132
2022-11-28T14:33:44.642Z,132
2022-11-28T14:34:59.873Z,124
2022-11-28T14:36:16.040Z,120
2022-11-28T14:37:32.244Z,112
2022-11-28T14:38:48.415Z,108
2022-11-28T14:40:04.624Z,100
2022-11-28T14:41:20.781Z,92
2022-11-28T14:42:36.964Z,92
2022-11-28T14:43:53.195Z,88
2022-11-28T14:45:09.384Z,80
2022-11-28T14:46:25.562Z,80
2022-11-28T14:47:41.750Z,72
2022-11-28T14:48:57.902Z,68
2022-11-28T14:50:14.103Z,64
2022-11-28T14:51:29.298Z,56
2022-11-28T14:52:45.510Z,56
2022-11-28T14:54:01.674Z,48
2022-11-28T14:55:17.869Z,44
2022-11-28T14:56:34.047Z,40
2022-11-28T14:57:50.268Z,36
2022-11-28T14:59:06.456Z,32
2022-11-28T15:00:22.641Z,32
2022-11-28T15:01:38.826Z,28
2022-11-28T15:02:55.020Z,24
2022-11-28T15:04:11.163Z,24
2022-11-28T15:05:27.393Z,20
2022-11-28T15:06:43.540Z,16
2022-11-28T15:07:58.741Z,16
2022-11-28T15:09:14.982Z,16
2022-11-28T15:10:31.165Z,12
2022-11-28T15:11:47.319Z,12
2022-11-28T15:13:03.540Z,12
2022-11-28T15:14:19.733Z,8
2022-11-28T15:15:35.871Z,4
2022-11-28T15:16:52.053Z,4
2022-11-28T15:18:08.289Z,4
2022-11-28T15:19:24.477Z,0
2022-11-28T15:20:40.668Z,4
2022-11-28T15:21:56.857Z,4
2022-11-28T15:23:13.041Z,0
2022-11-28T15:24:28.204Z,0
2022-11-28T15:25:44.382Z,0
2022-11-28T15:27:00.614Z,0
2022-11-28T15:28:16.800Z,0
2022-11-28T15:29:32.983Z,0
2022-11-28T15:30:49.178Z,0
2022-11-28T15:32:05.369Z,0
2022-11-28T15:33:21.543Z,0
2022-11-28T15:34:37.690Z,0
2022-11-28T15:35:53.936Z,0
2022-11-28T15:37:10.071Z,0
2022-11-28T15:38:26.301Z,0
2022-11-28T15:39:42.486Z,0
2022-11-28T15:40:57.693Z,0
2022-11-28T15:42:13.835Z,0
2022-11-28T15:43:30.066Z,0
2022-11-28T15:44:46.208Z,0
2022-11-28T15:46:02.391Z,0
2022-11-28T15:47:18.586Z,0
2022-11-28T15:48:34.813Z,0
2022-11-28T15:49:50.965Z,0
2022-11-28T15:51:07.187Z,0
2022-11-28T15:52:23.326Z,0
2022-11-28T15:53:39.569Z,0
2022-11-28T15:54:55.704Z,0
2022-11-28T15:56:11.952Z,0
2022-11-28T15:57:27.091Z,0
2022-11-28T15:58:43.282Z,0
2022-11-28T15:59:59.530Z,0
2022-11-28T16:01:15.700Z,0
2022-11-28T16:02:31.855Z,0
2022-11-28T16:03:48.077Z,0
2022-11-28T16:05:04.212Z,0
2022-11-28T16:06:20.408Z,0
2022-11-28T16:07:36.645Z,0
2022-11-28T16:08:52.772Z,0
2022-11-28T16:10:09.026Z,0
2022-11-28T16:11:25.164Z,0
2022-11-28T16:12:41.353Z,0
2022-11-28T16:13:56.536Z,0
2022-11-28T16:15:12.728Z,0
2022-11-28T16:16:28.975Z,0
2022-11-28T16:17:45.169Z,0
2022-11-28T16:19:01.342Z,0
2022-11-28T16:20:17.483Z,0
2022-11-28T16:21:33.723Z,0
2022-11-28T16:22:49.914Z,0
2022-11-28T16:24:06.104Z,0
2022-11-28T16:25:22.287Z,0
2022-11-28T16:26:38.471Z,0
2022-11-28T16:27:54.616Z,0
2022-11-28T16:29:10.844Z,0
2022-11-28T16:30:25.988Z,0
2022-11-28T16:31:42.242Z,0
2022-11-28T16:32:58.420Z,0
2022-11-28T16:34:14.611Z,0
2022-11-28T16:35:30.800Z,0
2022-11-28T16:36:46.930Z,0
2022-11-28T16:38:03.183Z,0
2022-11-28T16:39:19.356Z,0
2022-11-28T16:40:35.550Z,0
2022-11-28T16:41:51.749Z,0
2022-11-28T16:43:07.871Z,0
2022-11-28T16:44:24.107Z,0
2022-11-28T16:45:40.300Z,0
2022-11-28T16:46:55.500Z,0
2022-11-28T16:48:11.634Z,0
2022-11-28T16:49:27.820Z,0
2022-11-28T16:50:44.011Z,0
2022-11-28T16:52:00.258Z,0
2022-11-28T16:53:16.384Z,0
2022-11-28T16:54:32.625Z,0
2022-11-28T16:55:48.764Z,0
2022-11-28T16:57:04.943Z,0
2022-11-28T16:58:21.134Z,0
2022-11-28T16:59:37.323Z,0
2022-11-28T17:00:53.571Z,0
2022-11-28T17:02:09.685Z,0
2022-11-28T17:03:25.999Z,0
2022-11-28T17:04:42.250Z,0
2022-11-28T17:05:58.373Z,0
2022-11-28T17:07:14.635Z,0
2022-11-28T17:08:30.814Z,0
2022-11-28T17:09:47.003Z,0
2022-11-28T17:11:03.133Z,0
2022-11-28T17:12:19.310Z,0
2022-11-28T17:13:35.494Z,0
2022-11-28T17:14:51.684Z,0
2022-11-28T17:16:07.867Z,0
2022-11-28T17:17:24.072Z,0
2022-11-28T17:18:40.252Z,0
2022-11-28T17:19:55.519Z,0
2022-11-28T17:21:11.638Z,0
2022-11-28T17:22:27.827Z,0
2022-11-28T17:23:44.085Z,0
2022-11-28T17:25:00.279Z,0
2022-11-28T17:26:16.394Z,0
2022-11-28T17:27:32.573Z,0
2022-11-28T17:28:48.753Z,0
2022-11-28T17:30:05.020Z,0
2022-11-28T17:31:21.130Z,0
2022-11-28T17:32:37.390Z,0
2022-11-28T17:33:53.589Z,0
2022-11-28T17:35:09.690Z,0
2022-11-28T17:36:24.897Z,0
2022-11-28T17:37:41.153Z,0
2022-11-28T17:38:57.339Z,0
2022-11-28T17:40:13.455Z,0
2022-11-28T17:41:29.714Z,0
2022-11-28T17:42:45.904Z,0
2022-11-28T17:44:02.035Z,0
2022-11-28T17:45:18.293Z,0
2022-11-28T17:46:34.390Z,0
2022-11-28T17:47:50.593Z,0
2022-11-28T17:49:06.849Z,0
2022-11-28T17:50:23.042Z,0
2022-11-28T17:51:39.143Z,0
2022-11-28T17:52:54.420Z,0
2022-11-28T17:54:10.617Z,0
2022-11-28T17:55:26.797Z,0
2022-11-28T17:56:42.921Z,0
2022-11-28T17:57:59.173Z,0
2022-11-28T17:59:15.285Z,0